CheckWX is a tool to help pilots better visualize weather data.  It is not intended as a substitute for an official pre-flight weather briefing.

07:23:44 UTC

TNCB TAF
Flamingo International Airport
Kralendijk, Caribbean Netherlands
TAF TNCB 160434Z 1606/1712 09016KT 9999 SCT018 PROB40 TEMPO 1606/1619 5000 SHRA BKN015CB

Jun-16@
06:00 UTC

Jun-16 @ 06:00 UTC

Jun-17@
12:00 UTC

Jun-17 @ 12:00 UTC

TAF TNCB 160434Z 1606/1712 09016KT 9999 SCT018
Wind
  • 090° at 16 KTS
Cloud Levels
  • Scattered at 1,800' AGL

Jun-16@
06:00 UTC

Jun-16 @ 06:00 UTC

Jun-16@
19:00 UTC

Jun-16 @ 19:00 UTC

PROB40 TEMPO 1606/1619 5000 SHRA BKN015CB

Temporary - 40% Likelihood

Temporary - 40% Likelihood during this time.

Conditions
Rain
Cloud Levels
  • Broken at 1,500' AGL